sensor_id;sensor_type;location;lat;lon;timestamp;P1;durP1;ratioP1;P2;durP2;ratioP2
38117;SDS011;23928;47.562;7.508;2023-04-25T00:02:24;2.97;;;2.23;;
38117;SDS011;23928;47.562;7.508;2023-04-25T00:04:50;5.10;;;2.47;;
38117;SDS011;23928;47.562;7.508;2023-04-25T00:07:15;10.10;;;2.43;;
38117;SDS011;23928;47.562;7.508;2023-04-25T00:09:41;5.27;;;2.47;;
38117;SDS011;23928;47.562;7.508;2023-04-25T00:12:07;4.03;;;2.43;;
38117;SDS011;23928;47.562;7.508;2023-04-25T00:14:33;5.90;;;2.63;;
38117;SDS011;23928;47.562;7.508;2023-04-25T00:16:59;3.27;;;2.10;;
38117;SDS011;23928;47.562;7.508;2023-04-25T00:19:25;2.50;;;2.00;;
38117;SDS011;23928;47.562;7.508;2023-04-25T00:21:53;2.57;;;2.20;;
38117;SDS011;23928;47.562;7.508;2023-04-25T00:24:22;2.27;;;2.07;;
38117;SDS011;23928;47.562;7.508;2023-04-25T00:26:48;5.93;;;2.20;;
38117;SDS011;23928;47.562;7.508;2023-04-25T00:29:13;3.27;;;2.10;;
38117;SDS011;23928;47.562;7.508;2023-04-25T00:31:39;4.93;;;2.00;;
38117;SDS011;23928;47.562;7.508;2023-04-25T00:34:05;3.07;;;2.10;;
38117;SDS011;23928;47.562;7.508;2023-04-25T00:36:31;1.97;;;1.87;;
38117;SDS011;23928;47.562;7.508;2023-04-25T00:38:57;2.57;;;2.10;;
38117;SDS011;23928;47.562;7.508;2023-04-25T00:41:23;2.93;;;1.90;;
38117;SDS011;23928;47.562;7.508;2023-04-25T00:43:50;4.10;;;2.00;;
38117;SDS011;23928;47.562;7.508;2023-04-25T00:46:16;4.57;;;2.30;;
38117;SDS011;23928;47.562;7.508;2023-04-25T00:48:42;3.73;;;2.00;;
38117;SDS011;23928;47.562;7.508;2023-04-25T00:51:08;4.57;;;2.33;;
38117;SDS011;23928;47.562;7.508;2023-04-25T00:53:38;4.47;;;2.13;;
38117;SDS011;23928;47.562;7.508;2023-04-25T00:56:05;3.97;;;2.10;;
38117;SDS011;23928;47.562;7.508;2023-04-25T00:58:31;3.57;;;2.10;;
38117;SDS011;23928;47.562;7.508;2023-04-25T01:00:57;2.73;;;2.20;;
38117;SDS011;23928;47.562;7.508;2023-04-25T01:03:22;4.33;;;2.23;;
38117;SDS011;23928;47.562;7.508;2023-04-25T01:05:48;5.47;;;2.20;;
38117;SDS011;23928;47.562;7.508;2023-04-25T01:08:15;5.10;;;2.13;;
38117;SDS011;23928;47.562;7.508;2023-04-25T01:10:41;5.10;;;2.60;;
38117;SDS011;23928;47.562;7.508;2023-04-25T01:13:07;4.10;;;2.20;;
38117;SDS011;23928;47.562;7.508;2023-04-25T01:15:33;3.30;;;1.90;;
38117;SDS011;23928;47.562;7.508;2023-04-25T01:18:00;4.50;;;2.83;;
38117;SDS011;23928;47.562;7.508;2023-04-25T01:20:26;4.33;;;2.53;;
38117;SDS011;23928;47.562;7.508;2023-04-25T01:22:53;3.53;;;2.30;;
38117;SDS011;23928;47.562;7.508;2023-04-25T01:25:20;3.40;;;2.17;;
38117;SDS011;23928;47.562;7.508;2023-04-25T01:27:46;4.60;;;2.17;;
38117;SDS011;23928;47.562;7.508;2023-04-25T01:30:12;3.07;;;2.23;;
38117;SDS011;23928;47.562;7.508;2023-04-25T01:32:38;6.23;;;2.63;;
38117;SDS011;23928;47.562;7.508;2023-04-25T01:35:11;3.90;;;2.47;;
38117;SDS011;23928;47.562;7.508;2023-04-25T01:37:37;4.30;;;2.23;;
38117;SDS011;23928;47.562;7.508;2023-04-25T01:40:03;4.90;;;2.20;;
38117;SDS011;23928;47.562;7.508;2023-04-25T01:42:31;4.13;;;2.00;;
38117;SDS011;23928;47.562;7.508;2023-04-25T01:44:57;3.63;;;2.03;;
38117;SDS011;23928;47.562;7.508;2023-04-25T01:47:23;3.97;;;2.17;;
38117;SDS011;23928;47.562;7.508;2023-04-25T01:49:48;3.93;;;2.70;;
38117;SDS011;23928;47.562;7.508;2023-04-25T01:52:14;4.43;;;2.33;;
38117;SDS011;23928;47.562;7.508;2023-04-25T01:54:40;3.77;;;2.10;;
38117;SDS011;23928;47.562;7.508;2023-04-25T01:57:09;5.20;;;2.57;;
38117;SDS011;23928;47.562;7.508;2023-04-25T01:59:37;3.27;;;2.30;;
38117;SDS011;23928;47.562;7.508;2023-04-25T02:02:03;4.60;;;2.27;;
38117;SDS011;23928;47.562;7.508;2023-04-25T02:04:29;3.17;;;2.00;;
38117;SDS011;23928;47.562;7.508;2023-04-25T02:06:55;3.87;;;2.47;;
38117;SDS011;23928;47.562;7.508;2023-04-25T02:09:21;5.47;;;2.13;;
38117;SDS011;23928;47.562;7.508;2023-04-25T02:11:47;3.83;;;2.37;;
38117;SDS011;23928;47.562;7.508;2023-04-25T02:14:12;3.40;;;2.27;;
38117;SDS011;23928;47.562;7.508;2023-04-25T02:16:38;4.13;;;2.17;;
38117;SDS011;23928;47.562;7.508;2023-04-25T02:19:04;3.77;;;2.60;;
38117;SDS011;23928;47.562;7.508;2023-04-25T02:21:30;4.40;;;2.60;;
38117;SDS011;23928;47.562;7.508;2023-04-25T02:23:56;4.73;;;2.40;;
38117;SDS011;23928;47.562;7.508;2023-04-25T02:26:23;3.90;;;2.30;;
38117;SDS011;23928;47.562;7.508;2023-04-25T02:28:49;4.40;;;3.07;;
38117;SDS011;23928;47.562;7.508;2023-04-25T02:31:15;6.97;;;3.53;;
38117;SDS011;23928;47.562;7.508;2023-04-25T02:33:41;4.53;;;3.27;;
38117;SDS011;23928;47.562;7.508;2023-04-25T02:36:07;5.33;;;2.73;;
38117;SDS011;23928;47.562;7.508;2023-04-25T02:38:33;6.07;;;2.97;;
38117;SDS011;23928;47.562;7.508;2023-04-25T02:40:59;4.17;;;2.80;;
38117;SDS011;23928;47.562;7.508;2023-04-25T02:43:25;5.70;;;3.27;;
38117;SDS011;23928;47.562;7.508;2023-04-25T02:45:50;11.27;;;5.07;;
38117;SDS011;23928;47.562;7.508;2023-04-25T02:48:16;10.63;;;5.27;;
38117;SDS011;23928;47.562;7.508;2023-04-25T02:50:42;7.87;;;3.93;;
38117;SDS011;23928;47.562;7.508;2023-04-25T02:53:07;8.40;;;4.20;;
38117;SDS011;23928;47.562;7.508;2023-04-25T02:55:33;8.80;;;3.83;;
38117;SDS011;23928;47.562;7.508;2023-04-25T02:57:58;5.30;;;3.70;;
38117;SDS011;23928;47.562;7.508;2023-04-25T03:00:24;5.03;;;3.50;;
38117;SDS011;23928;47.562;7.508;2023-04-25T03:02:50;7.53;;;3.43;;
38117;SDS011;23928;47.562;7.508;2023-04-25T03:05:16;5.47;;;3.47;;
38117;SDS011;23928;47.562;7.508;2023-04-25T03:07:42;5.43;;;3.33;;
38117;SDS011;23928;47.562;7.508;2023-04-25T03:10:09;4.13;;;3.27;;
38117;SDS011;23928;47.562;7.508;2023-04-25T03:12:35;4.10;;;2.90;;
38117;SDS011;23928;47.562;7.508;2023-04-25T03:15:01;5.47;;;3.13;;
38117;SDS011;23928;47.562;7.508;2023-04-25T03:17:26;2.90;;;2.50;;
38117;SDS011;23928;47.562;7.508;2023-04-25T03:19:52;4.57;;;3.13;;
38117;SDS011;23928;47.562;7.508;2023-04-25T03:22:18;5.83;;;2.93;;
38117;SDS011;23928;47.562;7.508;2023-04-25T03:24:43;3.00;;;2.70;;
38117;SDS011;23928;47.562;7.508;2023-04-25T03:27:09;4.47;;;2.57;;
38117;SDS011;23928;47.562;7.508;2023-04-25T03:29:35;5.40;;;2.73;;
38117;SDS011;23928;47.562;7.508;2023-04-25T03:32:00;3.00;;;2.70;;
38117;SDS011;23928;47.562;7.508;2023-04-25T03:34:26;3.33;;;2.80;;
38117;SDS011;23928;47.562;7.508;2023-04-25T03:36:51;5.53;;;2.80;;
38117;SDS011;23928;47.562;7.508;2023-04-25T03:39:17;6.70;;;3.43;;
38117;SDS011;23928;47.562;7.508;2023-04-25T03:41:42;4.87;;;3.00;;
38117;SDS011;23928;47.562;7.508;2023-04-25T03:44:08;8.73;;;3.40;;
38117;SDS011;23928;47.562;7.508;2023-04-25T03:46:33;7.60;;;3.50;;
38117;SDS011;23928;47.562;7.508;2023-04-25T03:48:59;5.83;;;3.23;;
38117;SDS011;23928;47.562;7.508;2023-04-25T03:51:25;5.30;;;3.33;;
38117;SDS011;23928;47.562;7.508;2023-04-25T03:53:51;6.23;;;3.30;;
38117;SDS011;23928;47.562;7.508;2023-04-25T03:56:17;5.07;;;3.13;;
38117;SDS011;23928;47.562;7.508;2023-04-25T03:58:43;4.20;;;2.90;;
38117;SDS011;23928;47.562;7.508;2023-04-25T04:01:09;5.97;;;2.80;;
38117;SDS011;23928;47.562;7.508;2023-04-25T04:03:36;4.00;;;2.97;;
38117;SDS011;23928;47.562;7.508;2023-04-25T04:06:02;3.53;;;2.90;;
38117;SDS011;23928;47.562;7.508;2023-04-25T04:08:32;4.57;;;2.70;;
38117;SDS011;23928;47.562;7.508;2023-04-25T04:10:58;6.27;;;2.90;;
38117;SDS011;23928;47.562;7.508;2023-04-25T04:13:25;3.23;;;2.90;;
38117;SDS011;23928;47.562;7.508;2023-04-25T04:15:52;4.93;;;2.93;;
38117;SDS011;23928;47.562;7.508;2023-04-25T04:18:17;5.60;;;2.87;;
38117;SDS011;23928;47.562;7.508;2023-04-25T04:20:43;4.60;;;2.60;;
38117;SDS011;23928;47.562;7.508;2023-04-25T04:23:09;4.03;;;2.97;;
38117;SDS011;23928;47.562;7.508;2023-04-25T04:25:34;2.63;;;2.43;;
38117;SDS011;23928;47.562;7.508;2023-04-25T04:28:00;5.67;;;2.77;;
38117;SDS011;23928;47.562;7.508;2023-04-25T04:30:26;4.23;;;2.57;;
38117;SDS011;23928;47.562;7.508;2023-04-25T04:32:56;4.53;;;2.77;;
38117;SDS011;23928;47.562;7.508;2023-04-25T04:35:22;5.17;;;3.10;;
38117;SDS011;23928;47.562;7.508;2023-04-25T04:37:48;4.90;;;2.93;;
38117;SDS011;23928;47.562;7.508;2023-04-25T04:40:14;5.97;;;2.70;;
38117;SDS011;23928;47.562;7.508;2023-04-25T04:42:43;5.20;;;2.43;;
38117;SDS011;23928;47.562;7.508;2023-04-25T04:45:10;3.47;;;1.80;;
38117;SDS011;23928;47.562;7.508;2023-04-25T04:47:36;3.53;;;1.90;;
38117;SDS011;23928;47.562;7.508;2023-04-25T04:50:02;3.13;;;1.67;;
38117;SDS011;23928;47.562;7.508;2023-04-25T04:52:29;3.10;;;1.97;;
38117;SDS011;23928;47.562;7.508;2023-04-25T04:54:54;3.07;;;1.97;;
38117;SDS011;23928;47.562;7.508;2023-04-25T04:57:20;2.80;;;2.00;;
38117;SDS011;23928;47.562;7.508;2023-04-25T04:59:46;3.07;;;2.50;;
38117;SDS011;23928;47.562;7.508;2023-04-25T05:02:11;3.43;;;2.40;;
38117;SDS011;23928;47.562;7.508;2023-04-25T05:04:37;5.30;;;1.80;;
38117;SDS011;23928;47.562;7.508;2023-04-25T05:07:02;3.20;;;1.93;;
38117;SDS011;23928;47.562;7.508;2023-04-25T05:09:28;4.10;;;1.97;;
38117;SDS011;23928;47.562;7.508;2023-04-25T05:11:54;4.77;;;1.70;;
38117;SDS011;23928;47.562;7.508;2023-04-25T05:14:19;1.83;;;1.73;;
38117;SDS011;23928;47.562;7.508;2023-04-25T05:16:46;1.93;;;1.50;;
38117;SDS011;23928;47.562;7.508;2023-04-25T05:19:12;2.37;;;1.40;;
38117;SDS011;23928;47.562;7.508;2023-04-25T05:21:37;2.00;;;1.23;;
38117;SDS011;23928;47.562;7.508;2023-04-25T05:24:03;1.30;;;1.20;;
38117;SDS011;23928;47.562;7.508;2023-04-25T05:26:29;2.67;;;1.10;;
38117;SDS011;23928;47.562;7.508;2023-04-25T05:28:56;1.30;;;1.20;;
38117;SDS011;23928;47.562;7.508;2023-04-25T05:31:24;1.47;;;1.37;;
38117;SDS011;23928;47.562;7.508;2023-04-25T05:33:50;4.67;;;1.57;;
38117;SDS011;23928;47.562;7.508;2023-04-25T05:36:17;1.60;;;1.50;;
38117;SDS011;23928;47.562;7.508;2023-04-25T05:38:43;2.07;;;1.60;;
38117;SDS011;23928;47.562;7.508;2023-04-25T05:41:09;3.57;;;1.63;;
38117;SDS011;23928;47.562;7.508;2023-04-25T05:43:34;2.03;;;1.87;;
38117;SDS011;23928;47.562;7.508;2023-04-25T05:46:00;1.53;;;1.20;;
38117;SDS011;23928;47.562;7.508;2023-04-25T05:48:26;1.60;;;1.40;;
38117;SDS011;23928;47.562;7.508;2023-04-25T05:50:52;1.47;;;1.30;;
38117;SDS011;23928;47.562;7.508;2023-04-25T05:53:18;1.43;;;1.30;;
38117;SDS011;23928;47.562;7.508;2023-04-25T05:55:44;2.57;;;1.67;;
38117;SDS011;23928;47.562;7.508;2023-04-25T05:58:10;1.47;;;1.00;;
38117;SDS011;23928;47.562;7.508;2023-04-25T06:00:35;1.30;;;1.20;;
38117;SDS011;23928;47.562;7.508;2023-04-25T06:03:01;1.07;;;0.93;;
38117;SDS011;23928;47.562;7.508;2023-04-25T06:05:27;1.13;;;1.00;;
38117;SDS011;23928;47.562;7.508;2023-04-25T06:07:52;1.67;;;1.10;;
38117;SDS011;23928;47.562;7.508;2023-04-25T06:10:18;1.23;;;1.00;;
38117;SDS011;23928;47.562;7.508;2023-04-25T06:12:43;1.40;;;0.83;;
38117;SDS011;23928;47.562;7.508;2023-04-25T06:15:09;0.90;;;0.90;;
38117;SDS011;23928;47.562;7.508;2023-04-25T06:17:35;1.10;;;1.00;;
38117;SDS011;23928;47.562;7.508;2023-04-25T06:20:01;0.77;;;0.77;;
38117;SDS011;23928;47.562;7.508;2023-04-25T06:22:28;2.70;;;1.20;;
38117;SDS011;23928;47.562;7.508;2023-04-25T06:24:54;1.00;;;1.00;;
38117;SDS011;23928;47.562;7.508;2023-04-25T06:27:22;1.00;;;1.00;;
38117;SDS011;23928;47.562;7.508;2023-04-25T06:29:47;1.60;;;1.10;;
38117;SDS011;23928;47.562;7.508;2023-04-25T06:32:13;1.60;;;1.03;;
38117;SDS011;23928;47.562;7.508;2023-04-25T06:34:39;2.23;;;1.90;;
38117;SDS011;23928;47.562;7.508;2023-04-25T06:37:04;1.33;;;1.23;;
38117;SDS011;23928;47.562;7.508;2023-04-25T06:39:30;1.30;;;1.20;;
38117;SDS011;23928;47.562;7.508;2023-04-25T06:41:55;1.87;;;1.10;;
38117;SDS011;23928;47.562;7.508;2023-04-25T06:44:21;1.30;;;1.20;;
38117;SDS011;23928;47.562;7.508;2023-04-25T06:46:48;2.27;;;1.40;;
38117;SDS011;23928;47.562;7.508;2023-04-25T06:49:14;1.50;;;1.40;;
38117;SDS011;23928;47.562;7.508;2023-04-25T06:51:40;4.03;;;1.37;;
38117;SDS011;23928;47.562;7.508;2023-04-25T06:54:06;2.40;;;1.37;;
38117;SDS011;23928;47.562;7.508;2023-04-25T06:56:31;1.23;;;1.20;;
38117;SDS011;23928;47.562;7.508;2023-04-25T06:58:57;1.60;;;1.50;;
38117;SDS011;23928;47.562;7.508;2023-04-25T07:01:23;3.60;;;1.80;;
38117;SDS011;23928;47.562;7.508;2023-04-25T07:03:49;2.23;;;1.43;;
38117;SDS011;23928;47.562;7.508;2023-04-25T07:06:14;4.17;;;1.50;;
38117;SDS011;23928;47.562;7.508;2023-04-25T07:08:40;1.70;;;1.60;;
38117;SDS011;23928;47.562;7.508;2023-04-25T07:11:06;1.67;;;1.40;;
38117;SDS011;23928;47.562;7.508;2023-04-25T07:13:31;1.53;;;1.43;;
38117;SDS011;23928;47.562;7.508;2023-04-25T07:15:57;2.07;;;1.50;;
38117;SDS011;23928;47.562;7.508;2023-04-25T07:18:23;1.33;;;1.23;;
38117;SDS011;23928;47.562;7.508;2023-04-25T07:20:48;3.40;;;2.63;;
38117;SDS011;23928;47.562;7.508;2023-04-25T07:23:14;2.23;;;1.80;;
38117;SDS011;23928;47.562;7.508;2023-04-25T07:25:40;2.37;;;1.57;;
38117;SDS011;23928;47.562;7.508;2023-04-25T07:28:05;2.57;;;1.77;;
38117;SDS011;23928;47.562;7.508;2023-04-25T07:30:31;2.50;;;1.60;;
38117;SDS011;23928;47.562;7.508;2023-04-25T07:32:57;2.20;;;1.53;;
38117;SDS011;23928;47.562;7.508;2023-04-25T07:35:22;1.60;;;1.50;;
38117;SDS011;23928;47.562;7.508;2023-04-25T07:37:48;2.13;;;1.50;;
38117;SDS011;23928;47.562;7.508;2023-04-25T07:40:13;2.13;;;1.87;;
38117;SDS011;23928;47.562;7.508;2023-04-25T07:42:41;1.93;;;1.50;;
38117;SDS011;23928;47.562;7.508;2023-04-25T07:45:07;2.70;;;1.97;;
38117;SDS011;23928;47.562;7.508;2023-04-25T07:47:34;2.63;;;1.73;;
38117;SDS011;23928;47.562;7.508;2023-04-25T07:49:59;1.70;;;1.50;;
38117;SDS011;23928;47.562;7.508;2023-04-25T07:52:25;2.23;;;1.70;;
38117;SDS011;23928;47.562;7.508;2023-04-25T07:54:51;2.50;;;1.80;;
38117;SDS011;23928;47.562;7.508;2023-04-25T07:57:17;2.57;;;1.70;;
38117;SDS011;23928;47.562;7.508;2023-04-25T07:59:43;2.70;;;1.80;;
38117;SDS011;23928;47.562;7.508;2023-04-25T08:02:09;1.50;;;1.40;;
38117;SDS011;23928;47.562;7.508;2023-04-25T08:04:34;2.23;;;2.00;;
38117;SDS011;23928;47.562;7.508;2023-04-25T08:07:00;2.00;;;1.80;;
38117;SDS011;23928;47.562;7.508;2023-04-25T08:09:25;2.17;;;1.70;;
38117;SDS011;23928;47.562;7.508;2023-04-25T08:11:51;2.43;;;1.40;;
38117;SDS011;23928;47.562;7.508;2023-04-25T08:14:17;1.50;;;1.40;;
38117;SDS011;23928;47.562;7.508;2023-04-25T08:16:42;1.50;;;1.40;;
38117;SDS011;23928;47.562;7.508;2023-04-25T08:19:08;2.27;;;1.40;;
38117;SDS011;23928;47.562;7.508;2023-04-25T08:21:35;1.90;;;1.53;;
38117;SDS011;23928;47.562;7.508;2023-04-25T08:24:01;1.53;;;1.43;;
38117;SDS011;23928;47.562;7.508;2023-04-25T08:26:27;1.63;;;1.30;;
38117;SDS011;23928;47.562;7.508;2023-04-25T08:28:53;2.30;;;1.50;;
38117;SDS011;23928;47.562;7.508;2023-04-25T08:31:19;3.57;;;1.30;;
38117;SDS011;23928;47.562;7.508;2023-04-25T08:33:45;1.47;;;1.37;;
38117;SDS011;23928;47.562;7.508;2023-04-25T08:36:11;1.90;;;1.30;;
38117;SDS011;23928;47.562;7.508;2023-04-25T08:38:36;1.97;;;1.30;;
38117;SDS011;23928;47.562;7.508;2023-04-25T08:41:02;1.60;;;1.40;;
38117;SDS011;23928;47.562;7.508;2023-04-25T08:43:28;2.50;;;1.53;;
38117;SDS011;23928;47.562;7.508;2023-04-25T08:45:58;1.70;;;1.37;;
38117;SDS011;23928;47.562;7.508;2023-04-25T08:48:25;1.50;;;1.40;;
38117;SDS011;23928;47.562;7.508;2023-04-25T08:50:53;1.77;;;1.40;;
38117;SDS011;23928;47.562;7.508;2023-04-25T08:53:21;1.40;;;1.30;;
38117;SDS011;23928;47.562;7.508;2023-04-25T08:55:50;1.50;;;1.40;;
38117;SDS011;23928;47.562;7.508;2023-04-25T08:58:20;1.63;;;1.20;;
38117;SDS011;23928;47.562;7.508;2023-04-25T09:00:47;1.40;;;1.30;;
38117;SDS011;23928;47.562;7.508;2023-04-25T09:03:13;1.70;;;1.53;;
38117;SDS011;23928;47.562;7.508;2023-04-25T09:05:40;1.30;;;1.20;;
38117;SDS011;23928;47.562;7.508;2023-04-25T09:08:05;2.77;;;1.80;;
38117;SDS011;23928;47.562;7.508;2023-04-25T09:10:31;2.60;;;1.40;;
38117;SDS011;23928;47.562;7.508;2023-04-25T09:13:01;1.40;;;1.30;;
38117;SDS011;23928;47.562;7.508;2023-04-25T09:15:28;2.20;;;1.17;;
38117;SDS011;23928;47.562;7.508;2023-04-25T09:17:55;1.43;;;1.33;;
38117;SDS011;23928;47.562;7.508;2023-04-25T09:20:21;2.17;;;1.50;;
38117;SDS011;23928;47.562;7.508;2023-04-25T09:22:47;1.77;;;1.33;;
38117;SDS011;23928;47.562;7.508;2023-04-25T09:25:12;1.33;;;1.23;;
38117;SDS011;23928;47.562;7.508;2023-04-25T09:27:50;0.97;;;0.97;;
38117;SDS011;23928;47.562;7.508;2023-04-25T09:30:17;1.40;;;1.30;;
38117;SDS011;23928;47.562;7.508;2023-04-25T09:32:43;1.50;;;1.33;;
38117;SDS011;23928;47.562;7.508;2023-04-25T09:35:09;1.07;;;1.00;;
38117;SDS011;23928;47.562;7.508;2023-04-25T09:37:36;3.17;;;1.40;;
38117;SDS011;23928;47.562;7.508;2023-04-25T09:40:04;1.47;;;1.37;;
38117;SDS011;23928;47.562;7.508;2023-04-25T09:42:32;2.13;;;1.60;;
38117;SDS011;23928;47.562;7.508;2023-04-25T09:45:00;3.20;;;1.87;;
38117;SDS011;23928;47.562;7.508;2023-04-25T09:47:30;2.77;;;1.20;;
38117;SDS011;23928;47.562;7.508;2023-04-25T09:49:56;1.27;;;1.17;;
38117;SDS011;23928;47.562;7.508;2023-04-25T09:52:23;1.90;;;1.47;;
38117;SDS011;23928;47.562;7.508;2023-04-25T09:54:50;1.50;;;1.40;;
38117;SDS011;23928;47.562;7.508;2023-04-25T09:57:23;4.57;;;1.70;;
38117;SDS011;23928;47.562;7.508;2023-04-25T09:59:50;2.97;;;1.47;;
38117;SDS011;23928;47.562;7.508;2023-04-25T10:02:23;2.53;;;1.87;;
38117;SDS011;23928;47.562;7.508;2023-04-25T10:04:53;2.70;;;1.80;;
38117;SDS011;23928;47.562;7.508;2023-04-25T10:07:20;1.77;;;1.37;;
38117;SDS011;23928;47.562;7.508;2023-04-25T10:09:50;1.40;;;1.30;;
38117;SDS011;23928;47.562;7.508;2023-04-25T10:12:27;2.87;;;1.50;;
38117;SDS011;23928;47.562;7.508;2023-04-25T10:14:54;2.57;;;1.27;;
38117;SDS011;23928;47.562;7.508;2023-04-25T10:17:20;1.97;;;1.60;;
38117;SDS011;23928;47.562;7.508;2023-04-25T10:19:47;1.60;;;1.30;;
38117;SDS011;23928;47.562;7.508;2023-04-25T10:22:14;1.30;;;1.20;;
38117;SDS011;23928;47.562;7.508;2023-04-25T10:24:45;1.33;;;1.17;;
38117;SDS011;23928;47.562;7.508;2023-04-25T10:27:12;1.83;;;1.70;;
38117;SDS011;23928;47.562;7.508;2023-04-25T10:29:38;3.10;;;1.63;;
38117;SDS011;23928;47.562;7.508;2023-04-25T10:32:07;1.70;;;1.50;;
38117;SDS011;23928;47.562;7.508;2023-04-25T10:37:09;2.23;;;1.40;;
38117;SDS011;23928;47.562;7.508;2023-04-25T10:39:35;3.53;;;1.53;;
38117;SDS011;23928;47.562;7.508;2023-04-25T10:42:06;3.20;;;1.50;;
38117;SDS011;23928;47.562;7.508;2023-04-25T10:44:33;2.57;;;1.70;;
38117;SDS011;23928;47.562;7.508;2023-04-25T10:47:00;4.47;;;1.60;;
38117;SDS011;23928;47.562;7.508;2023-04-25T10:52:24;3.00;;;1.40;;
38117;SDS011;23928;47.562;7.508;2023-04-25T10:54:55;2.20;;;1.40;;
38117;SDS011;23928;47.562;7.508;2023-04-25T11:02:44;2.37;;;2.00;;
38117;SDS011;23928;47.562;7.508;2023-04-25T11:05:18;3.80;;;1.40;;
38117;SDS011;23928;47.562;7.508;2023-04-25T11:07:50;1.57;;;1.10;;
38117;SDS011;23928;47.562;7.508;2023-04-25T11:10:18;2.60;;;1.60;;
38117;SDS011;23928;47.562;7.508;2023-04-25T11:12:45;2.87;;;1.50;;
38117;SDS011;23928;47.562;7.508;2023-04-25T11:15:12;1.57;;;1.40;;
38117;SDS011;23928;47.562;7.508;2023-04-25T11:17:38;1.50;;;1.23;;
38117;SDS011;23928;47.562;7.508;2023-04-25T11:20:05;2.63;;;1.30;;
38117;SDS011;23928;47.562;7.508;2023-04-25T11:22:36;1.20;;;1.10;;
38117;SDS011;23928;47.562;7.508;2023-04-25T11:25:06;1.93;;;1.60;;
38117;SDS011;23928;47.562;7.508;2023-04-25T11:27:49;1.47;;;1.10;;
38117;SDS011;23928;47.562;7.508;2023-04-25T11:30:18;1.10;;;1.00;;
38117;SDS011;23928;47.562;7.508;2023-04-25T11:32:45;1.50;;;1.03;;
38117;SDS011;23928;47.562;7.508;2023-04-25T11:35:10;1.80;;;1.13;;
38117;SDS011;23928;47.562;7.508;2023-04-25T11:37:38;1.80;;;1.37;;
38117;SDS011;23928;47.562;7.508;2023-04-25T11:40:08;1.63;;;0.90;;
38117;SDS011;23928;47.562;7.508;2023-04-25T11:42:36;2.40;;;1.50;;
38117;SDS011;23928;47.562;7.508;2023-04-25T11:45:11;2.43;;;1.17;;
38117;SDS011;23928;47.562;7.508;2023-04-25T11:47:37;2.57;;;1.90;;
38117;SDS011;23928;47.562;7.508;2023-04-25T11:50:03;1.27;;;1.00;;
38117;SDS011;23928;47.562;7.508;2023-04-25T11:52:37;2.87;;;1.30;;
38117;SDS011;23928;47.562;7.508;2023-04-25T11:55:05;1.20;;;1.10;;
38117;SDS011;23928;47.562;7.508;2023-04-25T11:57:35;2.23;;;1.23;;
38117;SDS011;23928;47.562;7.508;2023-04-25T12:00:09;1.53;;;1.13;;
38117;SDS011;23928;47.562;7.508;2023-04-25T12:02:40;1.40;;;1.27;;
38117;SDS011;23928;47.562;7.508;2023-04-25T12:05:07;1.63;;;1.30;;
38117;SDS011;23928;47.562;7.508;2023-04-25T12:07:34;1.57;;;1.17;;
38117;SDS011;23928;47.562;7.508;2023-04-25T12:10:03;2.60;;;1.40;;
38117;SDS011;23928;47.562;7.508;2023-04-25T12:12:33;1.57;;;0.80;;
38117;SDS011;23928;47.562;7.508;2023-04-25T12:15:09;1.20;;;1.10;;
38117;SDS011;23928;47.562;7.508;2023-04-25T12:17:45;1.87;;;1.23;;
38117;SDS011;23928;47.562;7.508;2023-04-25T12:20:12;1.70;;;1.20;;
38117;SDS011;23928;47.562;7.508;2023-04-25T12:22:45;2.63;;;1.30;;
38117;SDS011;23928;47.562;7.508;2023-04-25T12:25:12;2.37;;;1.00;;
38117;SDS011;23928;47.562;7.508;2023-04-25T12:27:39;1.70;;;1.30;;
38117;SDS011;23928;47.562;7.508;2023-04-25T12:30:09;1.00;;;1.00;;
38117;SDS011;23928;47.562;7.508;2023-04-25T12:32:35;2.80;;;1.40;;
38117;SDS011;23928;47.562;7.508;2023-04-25T12:35:02;0.90;;;0.90;;
38117;SDS011;23928;47.562;7.508;2023-04-25T12:37:29;0.83;;;0.83;;
38117;SDS011;23928;47.562;7.508;2023-04-25T12:39:55;1.13;;;1.03;;
38117;SDS011;23928;47.562;7.508;2023-04-25T12:42:21;0.50;;;0.50;;
38117;SDS011;23928;47.562;7.508;2023-04-25T12:44:47;0.90;;;0.87;;
38117;SDS011;23928;47.562;7.508;2023-04-25T12:47:12;1.17;;;1.10;;
38117;SDS011;23928;47.562;7.508;2023-04-25T12:49:38;1.27;;;1.10;;
38117;SDS011;23928;47.562;7.508;2023-04-25T12:52:04;1.57;;;1.27;;
38117;SDS011;23928;47.562;7.508;2023-04-25T12:54:29;2.83;;;1.10;;
38117;SDS011;23928;47.562;7.508;2023-04-25T12:56:56;1.20;;;1.03;;
38117;SDS011;23928;47.562;7.508;2023-04-25T12:59:22;2.10;;;1.47;;
38117;SDS011;23928;47.562;7.508;2023-04-25T13:01:48;2.13;;;1.57;;
38117;SDS011;23928;47.562;7.508;2023-04-25T13:04:14;2.70;;;1.50;;
38117;SDS011;23928;47.562;7.508;2023-04-25T13:06:40;1.50;;;1.40;;
38117;SDS011;23928;47.562;7.508;2023-04-25T13:09:06;1.67;;;1.57;;
38117;SDS011;23928;47.562;7.508;2023-04-25T13:11:31;1.47;;;1.20;;
38117;SDS011;23928;47.562;7.508;2023-04-25T13:13:57;0.80;;;0.80;;
38117;SDS011;23928;47.562;7.508;2023-04-25T13:16:23;1.87;;;0.83;;
38117;SDS011;23928;47.562;7.508;2023-04-25T13:18:48;0.80;;;0.70;;
38117;SDS011;23928;47.562;7.508;2023-04-25T13:21:14;0.80;;;0.40;;
38117;SDS011;23928;47.562;7.508;2023-04-25T13:23:40;1.40;;;0.80;;
38117;SDS011;23928;47.562;7.508;2023-04-25T13:26:07;0.40;;;0.40;;
38117;SDS011;23928;47.562;7.508;2023-04-25T13:28:33;1.03;;;0.70;;
38117;SDS011;23928;47.562;7.508;2023-04-25T13:30:59;1.27;;;0.90;;
38117;SDS011;23928;47.562;7.508;2023-04-25T13:33:24;2.90;;;1.57;;
38117;SDS011;23928;47.562;7.508;2023-04-25T13:35:50;0.43;;;0.43;;
38117;SDS011;23928;47.562;7.508;2023-04-25T13:38:21;0.60;;;0.40;;
38117;SDS011;23928;47.562;7.508;2023-04-25T13:40:47;0.60;;;0.60;;
38117;SDS011;23928;47.562;7.508;2023-04-25T13:43:13;4.80;;;2.87;;
38117;SDS011;23928;47.562;7.508;2023-04-25T13:45:39;1.30;;;0.70;;
38117;SDS011;23928;47.562;7.508;2023-04-25T13:48:04;0.93;;;0.60;;
38117;SDS011;23928;47.562;7.508;2023-04-25T13:50:30;2.03;;;1.60;;
38117;SDS011;23928;47.562;7.508;2023-04-25T13:52:56;1.37;;;0.70;;
38117;SDS011;23928;47.562;7.508;2023-04-25T13:55:22;1.37;;;0.80;;
38117;SDS011;23928;47.562;7.508;2023-04-25T13:57:47;0.90;;;0.90;;
38117;SDS011;23928;47.562;7.508;2023-04-25T14:00:13;1.53;;;0.87;;
38117;SDS011;23928;47.562;7.508;2023-04-25T14:02:39;3.17;;;1.53;;
38117;SDS011;23928;47.562;7.508;2023-04-25T14:05:05;1.33;;;1.13;;
38117;SDS011;23928;47.562;7.508;2023-04-25T14:07:32;1.07;;;0.90;;
38117;SDS011;23928;47.562;7.508;2023-04-25T14:09:59;0.80;;;0.80;;
38117;SDS011;23928;47.562;7.508;2023-04-25T14:12:25;1.07;;;0.90;;
38117;SDS011;23928;47.562;7.508;2023-04-25T14:14:51;1.73;;;1.43;;
38117;SDS011;23928;47.562;7.508;2023-04-25T14:17:18;1.57;;;0.90;;
38117;SDS011;23928;47.562;7.508;2023-04-25T14:19:44;2.07;;;1.37;;
38117;SDS011;23928;47.562;7.508;2023-04-25T14:22:12;1.30;;;1.10;;
38117;SDS011;23928;47.562;7.508;2023-04-25T14:24:39;1.60;;;1.10;;
38117;SDS011;23928;47.562;7.508;2023-04-25T14:27:04;0.90;;;0.80;;
38117;SDS011;23928;47.562;7.508;2023-04-25T14:29:30;1.40;;;0.90;;
38117;SDS011;23928;47.562;7.508;2023-04-25T14:31:56;1.07;;;1.07;;
38117;SDS011;23928;47.562;7.508;2023-04-25T14:34:23;1.73;;;0.80;;
38117;SDS011;23928;47.562;7.508;2023-04-25T14:36:49;1.03;;;0.83;;
38117;SDS011;23928;47.562;7.508;2023-04-25T14:39:15;0.90;;;0.70;;
38117;SDS011;23928;47.562;7.508;2023-04-25T14:41:41;1.50;;;0.87;;
38117;SDS011;23928;47.562;7.508;2023-04-25T14:44:07;1.87;;;0.97;;
38117;SDS011;23928;47.562;7.508;2023-04-25T14:46:33;2.00;;;1.10;;
38117;SDS011;23928;47.562;7.508;2023-04-25T14:48:59;1.00;;;0.87;;
38117;SDS011;23928;47.562;7.508;2023-04-25T14:51:25;0.97;;;0.70;;
38117;SDS011;23928;47.562;7.508;2023-04-25T14:53:51;1.37;;;1.27;;
38117;SDS011;23928;47.562;7.508;2023-04-25T14:56:17;1.43;;;1.03;;